Main page
METAR-TAF:

METAR-TAF

Airports :

Rabat–Salé Airport

Rabat, Morocco

latitude: 34-03N, longitude: 006-46W, elevation: 84 m

Current weather observation

The report was made 48 minutes ago, at 21:30 UTC
Wind 2 kt from variable directions
Temperature 21°C
Humidity 88%
Pressure 1017 hPa
Visibility: 5000 m

METAR: GMME 242130Z VRB02KT 5000 NSC 21/19 Q1017 NOSIG

Time: 23:18 (22:18 UTC)

Forecast

The report was made 5 hours and 18 minutes ago, at 17:00 UTC
Forecast valid from 24 at 18 UTC to 25 at 24 UTC
Wind 8 kt from the Northwest
Visibility: 8000 m
Temporary
from 24 at 20 UTC to 25 at 08 UTC
Wind 2 kt from variable directions
Visibility: 3000 m
Broken clouds at a height of 800 ft
mist

TAF: GMME 241700Z 2418/2524 320008KT 8000 NSC TEMPO 2420/2508 VRB02KT 3000 BR BKN008

Weather observations and forecasts of more than 4000 airports (METAR and TAF reports).

The available stations are represented by yellow and red dots on the map.

Hover mouse over dot to see the name of the station.

Then click to see weather observations and forecasts.

To change the map : click on the green buttons with a black cross to zoom in, on the green button with a dash to zoom out, or on the green arrows for adjacent maps.


METAR-TAF: